Time;durP1;ratioP1;P1;durP2;ratioP2;P2;SDS_P1;SDS_P2;PMS_P1;PMS_P2;Temp;Humidity;BMP_temperature;BMP_pressure;BME280_temperature;BME280_humidity;BME280_pressure;Samples;Min_cycle;Max_cycle;Signal;HPM_P1;HPM_P2
2021/12/19 00:00:36;;;;;;;10.78;7.00;;;;;;;3.85;100.00;99502.47;1737883;82;21021;-69
2021/12/19 00:08:49;;;;;;;8.83;7.45;;;;;;;3.88;100.00;99485.16;1733888;81;21004;-69
2021/12/19 00:11:04;;;;;;;12.50;7.30;;;;;;;3.88;100.00;99490.33;1727405;82;21984;-69
2021/12/19 00:13:30;;;;;;;14.53;7.80;;;;;;;3.90;100.00;99473.52;1731813;81;20956;-69
2021/12/19 00:15:57;;;;;;;15.40;7.78;;;;;;;3.92;100.00;99483.34;1734277;81;21025;-70
2021/12/19 00:18:24;;;;;;;8.75;4.87;;;;;;;3.94;100.00;99480.29;1742035;81;21024;-69
2021/12/19 00:20:51;;;;;;;13.43;6.95;;;;;;;3.93;100.00;99479.89;1740401;81;21586;-69
2021/12/19 00:23:18;;;;;;;13.43;7.07;;;;;;;3.94;100.00;99475.13;1735506;82;21109;-69
2021/12/19 00:25:45;;;;;;;15.23;7.00;;;;;;;3.94;100.00;99466.08;1738681;81;21029;-70
2021/12/19 00:28:11;;;;;;;12.20;6.87;;;;;;;3.94;100.00;99458.34;1742298;81;21083;-69
2021/12/19 00:30:38;;;;;;;18.13;7.27;;;;;;;3.97;100.00;99458.26;1742366;81;21151;-69
2021/12/19 00:33:05;;;;;;;11.90;6.75;;;;;;;3.98;100.00;99459.98;1735360;81;21018;-70
2021/12/19 00:35:31;;;;;;;15.13;7.23;;;;;;;3.98;100.00;99452.22;1748931;80;21087;-70
2021/12/19 00:37:58;;;;;;;12.43;6.72;;;;;;;3.99;100.00;99451.33;1753800;81;21527;-69
2021/12/19 00:40:25;;;;;;;14.75;7.35;;;;;;;4.01;100.00;99458.61;1755105;80;20988;-70
2021/12/19 00:43:02;;;;;;;13.10;7.42;;;;;;;4.03;100.00;99434.84;1751944;81;21532;-69
2021/12/19 00:45:28;;;;;;;13.10;6.95;;;;;;;3.95;100.00;99429.02;1752389;80;21102;-70
2021/12/19 00:47:48;;;;;;;13.90;6.37;;;;;;;4.06;100.00;99433.92;1753333;81;21533;-69
2021/12/19 00:50:15;;;;;;;16.42;7.00;;;;;;;4.05;100.00;99446.00;1754006;80;22338;-70
2021/12/19 00:52:46;;;;;;;11.00;6.30;;;;;;;4.05;100.00;99448.58;1752387;81;20965;-69
2021/12/19 00:55:13;;;;;;;14.95;6.40;;;;;;;4.04;100.00;99444.31;1750954;80;20966;-70
2021/12/19 00:57:39;;;;;;;14.90;7.08;;;;;;;4.02;100.00;99440.91;1752470;81;21009;-70
2021/12/19 01:00:10;;;;;;;11.90;6.27;;;;;;;4.03;100.00;99445.18;1752792;80;20992;-70
2021/12/19 01:02:37;;;;;;;13.78;6.22;;;;;;;4.03;100.00;99445.18;1752602;80;21039;-69
2021/12/19 01:05:05;;;;;;;11.18;6.10;;;;;;;4.02;100.00;99442.20;1751935;81;21551;-69
2021/12/19 01:07:32;;;;;;;19.87;5.83;;;;;;;4.04;100.00;99447.73;1708075;82;21059;-69
2021/12/19 01:09:59;;;;;;;10.48;5.00;;;;;;;4.00;100.00;99440.09;1709216;82;21632;-69
2021/12/19 01:12:26;;;;;;;13.00;4.60;;;;;;;3.96;100.00;99443.66;1742991;81;21041;-70
2021/12/19 01:14:53;;;;;;;13.08;5.28;;;;;;;3.94;100.00;99450.59;1740804;81;21686;-69
2021/12/19 01:17:20;;;;;;;12.47;5.37;;;;;;;3.93;100.00;99424.36;1739907;81;21069;-69
2021/12/19 01:19:46;;;;;;;12.18;5.67;;;;;;;3.92;100.00;99427.39;1740386;81;21577;-69
2021/12/19 01:22:13;;;;;;;9.25;3.92;;;;;;;3.93;100.00;99421.33;1741008;81;21152;-69
2021/12/19 01:24:40;;;;;;;9.45;4.65;;;;;;;3.97;100.00;99417.77;1740476;81;21584;-69
2021/12/19 01:27:07;;;;;;;11.53;4.42;;;;;;;3.99;100.00;99417.74;1741379;81;21032;-69
2021/12/19 01:29:34;;;;;;;10.98;4.87;;;;;;;3.99;100.00;99435.38;1751184;81;22553;-69
2021/12/19 01:32:01;;;;;;;11.03;4.55;;;;;;;4.00;100.00;99429.76;1753363;81;20992;-69
2021/12/19 01:34:28;;;;;;;16.02;5.25;;;;;;;4.01;100.00;99428.89;1747362;80;21256;-69
2021/12/19 01:36:55;;;;;;;13.22;5.12;;;;;;;4.00;100.00;99425.88;1745881;81;21936;-69
2021/12/19 01:39:21;;;;;;;14.50;4.80;;;;;;;3.98;100.00;99410.89;1745269;81;21211;-69
2021/12/19 01:41:52;;;;;;;11.75;4.30;;;;;;;4.02;100.00;99415.08;1749270;81;21678;-69
2021/12/19 01:44:20;;;;;;;13.50;4.40;;;;;;;4.02;100.00;99415.08;1733994;81;20982;-69
2021/12/19 01:46:47;;;;;;;18.73;5.08;;;;;;;4.04;100.00;99415.89;1727296;81;21050;-69
2021/12/19 01:49:15;;;;;;;12.47;4.72;;;;;;;4.03;100.00;99415.05;1726515;81;21134;-70
2021/12/19 01:51:42;;;;;;;13.72;4.00;;;;;;;4.03;100.00;99423.22;1729273;82;21050;-69
2021/12/19 01:54:08;;;;;;;13.55;5.05;;;;;;;4.02;100.00;99397.00;1726542;81;21036;-69
2021/12/19 01:56:35;;;;;;;13.28;5.35;;;;;;;4.02;100.00;99390.53;1735104;81;21616;-69
2021/12/19 01:59:03;;;;;;;14.03;4.58;;;;;;;4.03;100.00;99372.84;1701595;84;21018;-69
2021/12/19 02:01:30;;;;;;;14.55;4.75;;;;;;;4.05;100.00;99376.24;1712101;82;21085;-69
2021/12/19 02:03:57;;;;;;;14.10;4.33;;;;;;;4.03;100.00;99387.05;1700913;82;21602;-70
2021/12/19 02:06:24;;;;;;;10.98;3.85;;;;;;;4.05;100.00;99380.12;1707457;83;21143;-69
2021/12/19 02:08:53;;;;;;;12.10;4.37;;;;;;;4.05;100.00;99374.95;1704339;82;20984;-69
2021/12/19 02:11:19;;;;;;;24.98;4.75;;;;;;;4.05;100.00;99365.91;1738368;81;21275;-69
2021/12/19 02:13:46;;;;;;;12.73;3.70;;;;;;;4.07;100.00;99352.52;1740306;81;22011;-69
2021/12/19 02:16:12;;;;;;;10.63;3.62;;;;;;;4.08;100.00;99394.25;1748222;81;21139;-70
2021/12/19 02:18:39;;;;;;;14.55;3.62;;;;;;;4.10;100.00;99382.14;1746886;81;21572;-70
2021/12/19 02:21:05;;;;;;;14.28;4.25;;;;;;;4.09;100.00;99380.46;1747197;81;21128;-69
2021/12/19 02:23:32;;;;;;;15.15;4.03;;;;;;;4.12;100.00;99377.80;1753926;81;21706;-69
2021/12/19 02:25:59;;;;;;;7.55;3.75;;;;;;;4.13;100.00;99381.22;1748648;81;21089;-69
2021/12/19 02:28:26;;;;;;;10.70;4.33;;;;;;;4.12;100.00;99370.04;1745296;81;21313;-69
2021/12/19 02:30:52;;;;;;;15.67;4.60;;;;;;;4.12;100.00;99354.54;1749659;81;20993;-69
2021/12/19 02:33:23;;;;;;;13.55;3.72;;;;;;;4.12;100.00;99357.12;1753789;81;21275;-69
2021/12/19 02:36:02;;;;;;;10.98;4.05;;;;;;;4.13;100.00;99355.38;1717170;82;21083;-69
2021/12/19 02:49:29;;;;;;;12.80;3.12;;;;;;;4.10;100.00;99356.31;1708468;83;21168;-69
2021/12/19 02:51:56;;;;;;;14.40;3.83;;;;;;;4.10;100.00;99355.47;1718773;82;22074;-69
2021/12/19 02:54:25;;;;;;;18.55;4.40;;;;;;;4.08;100.00;99355.48;1713584;83;20981;-69
2021/12/19 02:56:52;;;;;;;12.30;3.60;;;;;;;4.07;100.00;99361.56;1676629;83;21116;-69
2021/12/19 02:59:19;;;;;;;11.93;3.58;;;;;;;4.08;100.00;99355.48;1713033;83;21139;-69
2021/12/19 03:01:46;;;;;;;8.98;2.85;;;;;;;4.08;100.00;99355.48;1704047;83;21052;-69
2021/12/19 03:04:14;;;;;;;14.20;3.40;;;;;;;4.09;100.00;99352.45;1710956;83;21154;-69
2021/12/19 03:06:47;;;;;;;13.90;3.75;;;;;;;4.08;100.00;99354.65;1707604;83;21536;-70
2021/12/19 03:09:25;;;;;;;12.23;3.47;;;;;;;4.06;100.00;99352.09;1700236;83;21096;-69
2021/12/19 03:12:04;;;;;;;7.03;2.45;;;;;;;4.04;100.00;99355.19;1703597;82;21208;-69
2021/12/19 03:19:42;;;;;;;8.98;2.55;;;;;;;4.03;100.00;99379.30;1706460;83;20985;-69
2021/12/19 03:22:09;;;;;;;12.07;3.33;;;;;;;4.01;100.00;99390.14;1708130;83;21097;-69
2021/12/19 03:24:35;;;;;;;9.13;2.93;;;;;;;4.00;100.00;99388.42;1728018;81;21058;-67
2021/12/19 03:27:02;;;;;;;10.55;2.72;;;;;;;3.98;100.00;99381.19;1738375;81;21540;-69
2021/12/19 03:29:29;;;;;;;7.42;2.60;;;;;;;4.02;100.00;99367.28;1736228;81;21246;-69
2021/12/19 03:31:56;;;;;;;13.48;3.40;;;;;;;4.03;100.00;99368.97;1736006;81;21662;-70
2021/12/19 03:34:22;;;;;;;12.27;3.30;;;;;;;4.04;100.00;99375.85;1735781;81;20994;-69
2021/12/19 03:36:51;;;;;;;10.98;3.37;;;;;;;4.02;100.00;99365.99;1752228;81;20999;-69
2021/12/19 03:39:26;;;;;;;12.53;3.40;;;;;;;4.01;100.00;99369.48;1754880;81;21060;-69
2021/12/19 03:41:47;;;;;;;9.15;3.25;;;;;;;3.98;100.00;99357.94;1752469;81;21955;-69
2021/12/19 03:44:13;;;;;;;10.32;2.75;;;;;;;3.97;100.00;99340.27;1755921;81;21028;-69
2021/12/19 03:46:40;;;;;;;9.15;2.62;;;;;;;3.98;100.00;99326.94;1755994;81;21025;-70
2021/12/19 03:49:07;;;;;;;9.17;3.20;;;;;;;3.97;100.00;99318.77;1753824;81;21608;-69
2021/12/19 03:51:33;;;;;;;7.20;2.67;;;;;;;3.98;100.00;99318.73;1754092;80;21079;-70
2021/12/19 03:54:00;;;;;;;8.03;2.87;;;;;;;3.97;100.00;99311.02;1753568;81;22042;-69
2021/12/19 03:56:27;;;;;;;10.23;3.25;;;;;;;3.98;100.00;99318.73;1753365;81;21105;-69
2021/12/19 03:58:54;;;;;;;6.80;2.67;;;;;;;3.98;100.00;99318.73;1756244;80;21039;-70
2021/12/19 04:01:20;;;;;;;13.10;3.50;;;;;;;3.97;100.00;99308.43;1751518;81;21057;-69
2021/12/19 04:03:47;;;;;;;6.22;2.58;;;;;;;3.99;100.00;99301.50;1755180;81;21088;-69
2021/12/19 04:06:14;;;;;;;10.72;2.42;;;;;;;3.98;100.00;99299.81;1755494;80;21254;-69
2021/12/19 04:08:41;;;;;;;7.45;2.47;;;;;;;3.98;100.00;99320.48;1755701;81;21040;-69
2021/12/19 04:11:08;;;;;;;7.17;2.40;;;;;;;3.95;99.97;99320.53;1754196;81;21673;-69
2021/12/19 04:13:35;;;;;;;8.78;2.40;;;;;;;3.93;99.81;99328.79;1754259;80;21001;-69
2021/12/19 04:16:02;;;;;;;10.58;2.60;;;;;;;3.93;99.86;99327.50;1752799;81;21685;-70
2021/12/19 04:18:28;;;;;;;9.63;2.87;;;;;;;3.90;100.00;99325.00;1750477;81;21026;-69
2021/12/19 04:20:55;;;;;;;7.62;2.70;;;;;;;3.88;100.00;99316.44;1752477;81;21131;-69
2021/12/19 04:23:22;;;;;;;9.73;2.63;;;;;;;3.88;100.00;99317.73;1751483;80;21567;-69
2021/12/19 04:25:50;;;;;;;9.53;2.77;;;;;;;3.87;100.00;99312.17;1750683;80;21051;-69
2021/12/19 04:28:16;;;;;;;10.32;2.67;;;;;;;3.89;99.91;99311.21;1752959;81;20969;-69
2021/12/19 04:30:43;;;;;;;5.80;2.12;;;;;;;3.89;99.91;99298.75;1753236;80;21074;-70
2021/12/19 04:33:12;;;;;;;5.30;2.08;;;;;;;3.87;99.85;99301.84;1755737;80;20914;-68
2021/12/19 04:35:43;;;;;;;9.35;2.20;;;;;;;3.87;99.93;99300.09;1751875;80;21024;-69
2021/12/19 04:44:12;;;;;;;6.87;2.27;;;;;;;3.86;99.97;99289.79;1754516;81;21572;-69
2021/12/19 04:59:38;;;;;;;7.17;2.25;;;;;;;3.80;99.92;99281.31;1688291;83;21026;-69
2021/12/19 05:05:15;;;;;;;6.67;2.02;;;;;;;3.81;99.70;99283.03;1683690;83;21685;-69
2021/12/19 05:15:07;;;;;;;3.92;2.02;;;;;;;3.72;99.65;99284.55;1683606;83;21451;-70
2021/12/19 05:17:34;;;;;;;;;;;;;;;3.68;99.46;99289.39;1662296;85;21137;-68
2021/12/19 05:20:14;;;;;;;8.43;2.72;;;;;;;3.67;99.50;99285.13;1685419;83;20665;-69
2021/12/19 05:22:44;;;;;;;10.53;2.83;;;;;;;3.66;99.63;99275.67;1657585;85;21175;-70
2021/12/19 05:25:14;;;;;;;9.30;2.58;;;;;;;3.64;99.57;99280.05;1654582;85;21154;-69
2021/12/19 05:27:37;;;;;;;6.58;2.75;;;;;;;3.63;99.55;99280.92;1663476;85;21128;-69
2021/12/19 05:30:05;;;;;;;10.30;3.20;;;;;;;3.64;99.53;99287.80;1659793;84;21123;-69
2021/12/19 05:32:32;;;;;;;5.28;2.05;;;;;;;3.63;99.52;99286.08;1742299;81;21088;-69
2021/12/19 05:34:58;;;;;;;9.65;2.35;;;;;;;3.63;99.53;99283.50;1739389;81;21125;-69
2021/12/19 05:45:41;;;;;;;7.53;2.20;;;;;;;3.52;99.44;99272.61;1703337;82;21091;-70
2021/12/19 05:48:07;;;;;;;8.07;2.67;;;;;;;3.53;99.43;99284.64;1700687;82;21697;-70
2021/12/19 05:50:34;;;;;;;8.90;2.72;;;;;;;3.53;99.48;99266.58;1709814;82;21063;-69
2021/12/19 05:53:01;;;;;;;9.67;2.30;;;;;;;3.50;99.40;99261.46;1743674;81;21357;-69
2021/12/19 05:55:27;;;;;;;7.85;2.40;;;;;;;3.48;99.37;99255.52;1740073;81;21635;-69
2021/12/19 05:57:54;;;;;;;8.15;2.25;;;;;;;3.45;99.32;99259.02;1741557;81;21044;-70
2021/12/19 06:00:21;;;;;;;6.80;2.35;;;;;;;3.45;99.29;99255.59;1748888;81;22808;-69
2021/12/19 06:02:48;;;;;;;9.25;2.70;;;;;;;3.44;99.31;99255.17;1746234;81;21139;-69
2021/12/19 06:05:15;;;;;;;6.70;2.42;;;;;;;3.42;99.19;99259.10;1748182;81;21139;-70
2021/12/19 06:07:42;;;;;;;6.23;2.20;;;;;;;3.38;99.15;99260.50;1740247;81;20968;-70
2021/12/19 06:10:11;;;;;;;6.37;2.12;;;;;;;3.36;99.11;99254.07;1747929;81;21613;-69
2021/12/19 06:12:39;;;;;;;8.85;2.40;;;;;;;3.31;99.16;99249.05;1751890;81;22253;-70
2021/12/19 06:15:09;;;;;;;9.03;2.47;;;;;;;3.30;99.24;99253.78;1747101;81;20985;-70
2021/12/19 06:17:40;;;;;;;6.83;2.45;;;;;;;3.31;99.25;99249.05;1741994;81;21072;-69
2021/12/19 06:20:09;;;;;;;7.28;2.62;;;;;;;3.29;99.34;99250.81;1747570;81;21080;-70
2021/12/19 06:22:35;;;;;;;6.92;2.10;;;;;;;3.30;99.46;99255.07;1741296;81;21129;-69
2021/12/19 06:25:04;;;;;;;5.30;2.33;;;;;;;3.31;99.61;99267.11;1742685;81;21252;-70
2021/12/19 06:27:30;;;;;;;10.50;2.98;;;;;;;3.34;99.64;99266.19;1746723;81;20971;-69
2021/12/19 06:29:57;;;;;;;8.67;3.23;;;;;;;3.31;99.63;99255.50;1746083;81;21099;-70
2021/12/19 06:32:24;;;;;;;7.80;2.40;;;;;;;3.32;99.59;99258.47;1744017;80;21753;-69
2021/12/19 06:34:50;;;;;;;9.90;3.15;;;;;;;3.30;99.67;99257.66;1744718;81;21048;-70
2021/12/19 06:37:17;;;;;;;5.70;2.00;;;;;;;3.31;99.66;99264.53;1743539;81;22015;-70
2021/12/19 06:39:44;;;;;;;4.95;1.87;;;;;;;3.31;99.62;99254.20;1733650;81;21059;-69
2021/12/19 06:42:11;;;;;;;6.20;2.10;;;;;;;3.30;99.65;99262.81;1733295;81;21012;-70
2021/12/19 06:44:38;;;;;;;9.40;1.90;;;;;;;3.32;99.66;99255.89;1734838;81;21024;-70
2021/12/19 06:47:05;;;;;;;7.37;2.20;;;;;;;3.31;99.68;99262.39;1736654;81;20905;-69
2021/12/19 06:49:31;;;;;;;7.25;2.25;;;;;;;3.30;99.69;99262.81;1734296;81;24490;-70
2021/12/19 06:51:58;;;;;;;5.97;1.90;;;;;;;3.33;99.69;99256.73;1734508;81;20974;-69
2021/12/19 06:54:25;;;;;;;7.43;2.37;;;;;;;3.35;99.67;99263.55;1732874;81;21619;-69
2021/12/19 06:56:51;;;;;;;3.67;1.95;;;;;;;3.35;99.70;99258.39;1706795;83;21104;-69
2021/12/19 06:59:18;;;;;;;4.75;1.60;;;;;;;3.35;99.66;99245.48;1701245;82;21106;-69
2021/12/19 07:01:45;;;;;;;7.30;1.87;;;;;;;3.34;99.65;99242.52;1736080;81;21194;-69
2021/12/19 07:04:11;;;;;;;5.22;2.20;;;;;;;3.35;99.63;99235.16;1735442;81;21072;-70
2021/12/19 07:06:38;;;;;;;8.70;2.07;;;;;;;3.39;99.57;99240.24;1733296;81;21017;-69
2021/12/19 07:09:05;;;;;;;10.50;2.40;;;;;;;3.41;99.57;99246.22;1732787;81;20953;-70
2021/12/19 07:11:31;;;;;;;5.63;1.83;;;;;;;3.43;99.52;99241.88;1740334;81;21016;-70
2021/12/19 07:13:58;;;;;;;5.37;1.75;;;;;;;3.44;99.51;99225.49;1701180;83;21214;-69
2021/12/19 07:16:25;;;;;;;5.50;1.50;;;;;;;3.45;99.39;99227.20;1737467;81;21545;-70
2021/12/19 07:18:52;;;;;;;7.67;1.65;;;;;;;3.47;99.34;99230.57;1736525;81;20939;-70
2021/12/19 07:21:18;;;;;;;12.25;2.17;;;;;;;3.46;99.23;99221.14;1702603;83;21630;-70
2021/12/19 07:23:45;;;;;;;8.33;2.05;;;;;;;3.46;99.19;99222.44;1740116;81;20997;-69
2021/12/19 07:26:12;;;;;;;4.45;1.57;;;;;;;3.45;99.13;99223.34;1701672;83;21545;-69
2021/12/19 07:28:40;;;;;;;3.25;1.70;;;;;;;3.43;99.13;99225.10;1703046;83;21151;-70
2021/12/19 07:31:07;;;;;;;5.53;1.45;;;;;;;3.41;99.09;99215.25;1720455;81;21687;-69
2021/12/19 07:33:34;;;;;;;13.32;3.00;;;;;;;3.42;99.11;99213.94;1679675;83;21131;-69
2021/12/19 07:36:01;;;;;;;8.88;2.00;;;;;;;3.42;99.04;99210.48;1735617;81;20968;-68
2021/12/19 07:38:47;;;;;;;7.87;1.90;;;;;;;3.40;98.97;99210.98;1733364;81;21060;-67
2021/12/19 07:40:59;;;;;;;6.22;1.62;;;;;;;3.36;98.94;99213.66;1730743;81;21072;-70
2021/12/19 07:43:26;;;;;;;5.37;1.92;;;;;;;3.31;98.95;99210.34;1737416;82;21003;-69
2021/12/19 07:45:53;;;;;;;5.78;1.82;;;;;;;3.29;98.99;99217.72;1738728;82;21140;-69
2021/12/19 07:48:23;;;;;;;5.67;2.00;;;;;;;3.29;99.11;99217.27;1736699;81;21093;-67
2021/12/19 07:50:49;;;;;;;5.15;1.55;;;;;;;3.31;99.23;99215.50;1735710;82;21089;-67
2021/12/19 07:53:16;;;;;;;4.30;1.50;;;;;;;3.36;99.24;99209.78;1735655;82;21029;-66
2021/12/19 07:55:43;;;;;;;8.73;2.17;;;;;;;3.43;99.28;99218.65;1736531;81;21136;-67
2021/12/19 07:58:11;;;;;;;6.87;2.30;;;;;;;3.48;99.26;99219.38;1736043;82;22200;-67
2021/12/19 08:00:38;;;;;;;7.35;1.45;;;;;;;3.50;99.14;99219.75;1737936;81;26775;-67
2021/12/19 08:03:05;;;;;;;6.58;1.70;;;;;;;3.54;99.11;99221.80;1736013;82;21564;-69
2021/12/19 08:05:31;;;;;;;4.92;1.95;;;;;;;3.56;98.98;99226.48;1736694;81;21331;-70
2021/12/19 08:08:03;;;;;;;6.33;1.80;;;;;;;3.59;98.97;99219.94;1735826;82;21065;-68
2021/12/19 08:13:08;;;;;;;5.62;2.08;;;;;;;3.65;98.96;99227.52;1735539;82;21065;-70
2021/12/19 08:15:36;;;;;;;5.87;2.22;;;;;;;3.66;98.77;99224.03;1733495;82;21189;-69
2021/12/19 08:18:03;;;;;;;4.20;1.70;;;;;;;3.67;98.67;99225.75;1738334;82;21065;-69
2021/12/19 08:20:30;;;;;;;4.33;2.52;;;;;;;3.70;98.85;99211.91;1735749;82;20942;-69
2021/12/19 08:22:57;;;;;;;6.78;1.67;;;;;;;3.70;98.61;99207.59;1739125;82;21006;-69
2021/12/19 08:25:26;;;;;;;6.03;1.80;;;;;;;3.70;98.76;99193.39;1738506;82;21044;-70
2021/12/19 08:27:54;;;;;;;4.20;1.50;;;;;;;3.71;98.72;99195.07;1738327;81;22324;-70
2021/12/19 08:30:23;;;;;;;5.53;1.87;;;;;;;3.73;98.72;99193.30;1739745;82;21037;-69
2021/12/19 08:32:49;;;;;;;6.30;2.17;;;;;;;3.74;98.67;99195.43;1719357;82;20966;-70
2021/12/19 08:35:16;;;;;;;7.43;2.10;;;;;;;3.76;98.54;99189.34;1738325;82;21774;-69
2021/12/19 08:37:43;;;;;;;3.72;1.60;;;;;;;3.81;98.62;99188.77;1728360;81;21015;-69
2021/12/19 08:40:12;;;;;;;5.30;1.90;;;;;;;3.85;98.17;99191.26;1730745;82;21102;-68
2021/12/19 08:42:38;;;;;;;7.97;2.42;;;;;;;3.86;98.01;99196.81;1728211;81;21683;-69
2021/12/19 08:45:07;;;;;;;10.43;1.90;;;;;;;3.88;98.13;99187.30;1730273;81;21038;-69
2021/12/19 08:47:34;;;;;;;7.72;1.87;;;;;;;3.91;98.25;99187.20;1731313;82;21075;-69
2021/12/19 08:50:01;;;;;;;4.30;1.70;;;;;;;3.93;98.07;99194.02;1729742;81;21784;-69
2021/12/19 08:52:28;;;;;;;3.20;1.70;;;;;;;3.95;97.87;99191.38;1728529;81;22096;-70
2021/12/19 08:54:58;;;;;;;5.95;2.25;;;;;;;3.93;97.50;99194.47;1728185;81;21871;-69
2021/12/19 08:57:23;;;;;;;6.12;2.65;;;;;;;3.94;97.61;99202.61;1727784;81;21045;-69
2021/12/19 08:59:50;;;;;;;6.55;2.10;;;;;;;3.96;97.78;99203.42;1730995;81;20958;-69
2021/12/19 09:02:16;;;;;;;5.28;1.85;;;;;;;3.96;97.56;99199.55;1733416;82;21188;-69
2021/12/19 09:04:43;;;;;;;6.47;2.30;;;;;;;3.95;97.08;99197.84;1731590;81;21194;-69
2021/12/19 09:07:12;;;;;;;3.58;1.62;;;;;;;3.97;97.33;99206.40;1732508;81;21635;-68
2021/12/19 09:09:39;;;;;;;4.90;2.02;;;;;;;4.00;97.58;99199.84;1719376;82;21088;-69
2021/12/19 09:12:07;;;;;;;2.95;1.47;;;;;;;4.02;97.46;99200.66;1731145;81;20975;-69
2021/12/19 09:14:36;;;;;;;5.35;1.80;;;;;;;4.02;96.91;99198.91;1727907;81;21044;-69
2021/12/19 09:17:03;;;;;;;5.08;1.70;;;;;;;4.05;97.30;99192.81;1727217;81;21096;-69
2021/12/19 09:19:30;;;;;;;4.47;2.25;;;;;;;4.06;97.08;99200.95;1733376;82;21323;-69
2021/12/19 09:21:57;;;;;;;4.87;2.07;;;;;;;4.08;97.07;99202.22;1730965;81;21024;-70
2021/12/19 09:24:24;;;;;;;;;;;;;;;4.08;97.06;99196.59;1735689;81;20997;-69
2021/12/19 09:26:50;;;;;;;6.47;2.60;;;;;;;4.11;97.21;99193.92;1727886;81;20215;-69
2021/12/19 09:29:17;;;;;;;3.90;1.97;;;;;;;4.11;96.85;99200.38;1729888;81;22445;-68
2021/12/19 09:31:44;;;;;;;6.45;2.42;;;;;;;4.14;96.90;99200.29;1731253;82;21215;-70
2021/12/19 09:34:11;;;;;;;6.37;2.10;;;;;;;4.16;96.76;99204.97;1731046;82;21648;-69
2021/12/19 09:36:37;;;;;;;3.83;1.85;;;;;;;4.21;96.93;99181.14;1736759;81;21144;-69
2021/12/19 09:39:06;;;;;;;7.33;2.50;;;;;;;4.25;96.72;99185.31;1753591;80;20979;-69
2021/12/19 09:41:36;;;;;;;7.92;2.55;;;;;;;4.31;96.64;99179.11;1754552;81;21140;-69
2021/12/19 09:44:05;;;;;;;5.97;2.10;;;;;;;4.27;94.80;99176.23;1753159;80;21482;-68
2021/12/19 09:46:41;;;;;;;6.15;2.00;;;;;;;4.31;95.50;99171.81;1753995;81;21068;-69
2021/12/19 09:49:12;;;;;;;17.35;2.50;;;;;;;4.35;95.21;99160.50;1752087;80;21512;-69
2021/12/19 09:51:41;;;;;;;6.42;2.15;;;;;;;4.42;95.97;99156.81;1751503;81;20977;-69
2021/12/19 09:54:10;;;;;;;5.30;1.60;;;;;;;4.44;95.16;99164.09;1748225;80;21095;-69
2021/12/19 09:56:39;;;;;;;4.62;1.50;;;;;;;4.37;93.45;99162.57;1751754;81;21059;-69
2021/12/19 09:59:19;;;;;;;5.95;1.77;;;;;;;4.37;93.27;99158.69;1747655;80;21043;-69
2021/12/19 10:01:48;;;;;;;5.08;1.75;;;;;;;4.45;94.54;99155.42;1748502;81;20949;-68
2021/12/19 10:04:35;;;;;;;4.53;1.60;;;;;;;4.45;93.93;99151.55;1712196;82;21028;-69
2021/12/19 10:07:21;;;;;;;5.43;1.80;;;;;;;4.49;93.99;99157.03;1738568;81;21735;-68
2021/12/19 10:10:12;;;;;;;2.65;1.15;;;;;;;4.53;94.08;99153.90;1741144;81;21724;-67
2021/12/19 10:15:09;;;;;;;5.37;1.35;;;;;;;4.52;92.82;99149.18;1742822;81;21060;-67
2021/12/19 10:17:37;;;;;;;5.20;1.57;;;;;;;4.57;93.49;99143.88;1678674;83;21064;-68
2021/12/19 10:20:09;;;;;;;4.10;1.45;;;;;;;4.62;93.82;99142.83;1699607;83;21095;-66
2021/12/19 10:22:44;;;;;;;4.50;1.50;;;;;;;4.65;93.48;99136.27;1693138;83;21183;-67
2021/12/19 10:25:30;;;;;;;4.47;1.62;;;;;;;4.63;92.31;99128.16;1715635;82;21075;-68
2021/12/19 10:28:05;;;;;;;4.85;1.80;;;;;;;4.63;91.85;99134.17;1742528;81;21568;-67
2021/12/19 10:30:43;;;;;;;3.40;1.55;;;;;;;4.67;92.72;99129.73;1738763;80;21052;-68
2021/12/19 10:33:12;;;;;;;;;;;;;;;4.55;90.40;99130.98;1743601;81;21150;-68
2021/12/19 10:35:47;;;;;;;5.50;1.72;;;;;;;4.54;90.04;99139.64;1749256;80;20149;-68
2021/12/19 10:38:18;;;;;;;3.83;1.92;;;;;;;4.49;88.80;99132.48;1733669;81;21132;-68
2021/12/19 10:40:49;;;;;;;3.92;1.87;;;;;;;4.49;89.85;99133.77;1702947;83;21076;-67
2021/12/19 10:43:17;;;;;;;5.08;2.02;;;;;;;4.46;88.39;99128.70;1731198;81;21028;-67
2021/12/19 10:45:56;;;;;;;2.40;1.12;;;;;;;4.48;89.53;99129.47;1717720;82;21095;-67
2021/12/19 10:48:31;;;;;;;2.08;1.22;;;;;;;4.44;87.60;99116.27;1727037;81;22290;-68
2021/12/19 10:51:17;;;;;;;6.45;1.35;;;;;;;4.40;85.61;99136.66;1735606;81;21065;-68
2021/12/19 10:53:55;;;;;;;4.85;1.95;;;;;;;4.41;86.40;99144.34;1731982;82;20998;-68
2021/12/19 10:56:25;;;;;;;;;;;;;;;4.43;86.88;99134.81;1737651;81;21044;-67
2021/12/19 10:58:59;;;;;;;3.72;1.10;;;;;;;4.28;80.19;99156.40;1730090;82;21032;-67
2021/12/19 11:01:48;;;;;;;3.08;0.98;;;;;;;4.35;82.72;99146.28;1729142;81;21025;-67
2021/12/19 11:04:21;;;;;;;2.98;0.93;;;;;;;4.29;80.70;99147.33;1732535;81;21010;-68
2021/12/19 11:06:51;;;;;;;2.45;1.00;;;;;;;4.25;79.78;99146.55;1734907;81;21029;-68
2021/12/19 11:09:29;;;;;;;3.92;1.35;;;;;;;4.25;80.66;99135.38;1733745;82;21049;-68
2021/12/19 11:12:05;;;;;;;4.75;1.30;;;;;;;4.32;83.14;99138.63;1734155;82;21740;-68
2021/12/19 11:14:44;;;;;;;2.80;0.90;;;;;;;4.29;81.83;99127.10;1733153;82;20934;-67
2021/12/19 11:17:22;;;;;;;3.15;1.40;;;;;;;4.28;82.12;99116.34;1732501;81;21034;-67
2021/12/19 11:19:56;;;;;;;2.22;1.20;;;;;;;4.26;82.64;99115.95;1735066;81;21053;-68
2021/12/19 11:22:27;;;;;;;2.08;1.15;;;;;;;4.21;81.42;99101.03;1732319;81;21061;-67
2021/12/19 11:25:01;;;;;;;2.80;1.42;;;;;;;4.23;82.46;99085.50;1731625;81;21904;-68
2021/12/19 11:27:34;;;;;;;2.00;1.20;;;;;;;4.24;83.31;99088.02;1718609;81;21002;-67
2021/12/19 11:30:02;;;;;;;3.85;1.65;;;;;;;4.21;80.94;99093.28;1732590;80;21010;-67
2021/12/19 11:32:39;;;;;;;4.03;1.30;;;;;;;4.22;82.61;99082.04;1735435;82;21217;-67
2021/12/19 11:35:11;;;;;;;4.65;1.55;;;;;;;4.19;81.37;99087.77;1632284;85;21093;-68
2021/12/19 11:37:52;;;;;;;3.58;1.40;;;;;;;4.21;83.01;99067.44;1632725;86;21284;-68
2021/12/19 11:40:21;;;;;;;3.50;1.40;;;;;;;4.24;82.07;99071.22;1629113;86;21144;-68
2021/12/19 11:42:48;;;;;;;4.67;1.80;;;;;;;4.23;82.52;99079.88;1641068;86;21107;-68
2021/12/19 11:45:32;;;;;;;4.00;2.20;;;;;;;4.17;80.76;99083.95;1644498;86;21191;-67
2021/12/19 11:48:09;;;;;;;3.55;1.55;;;;;;;4.14;81.88;99078.85;1639786;86;21115;-68
2021/12/19 11:50:36;;;;;;;8.10;1.72;;;;;;;4.09;81.19;99075.59;1632744;85;22309;-68
2021/12/19 11:53:11;;;;;;;3.35;1.50;;;;;;;4.02;79.94;99097.33;1635927;86;22467;-67
2021/12/19 11:55:46;;;;;;;3.72;1.95;;;;;;;4.05;80.44;99086.90;1609065;88;21065;-67
2021/12/19 11:58:22;;;;;;;5.30;2.10;;;;;;;4.04;81.77;99086.52;1587527;89;21261;-67
2021/12/19 12:01:02;;;;;;;4.92;1.92;;;;;;;4.01;81.01;99094.36;1610824;87;21277;-68
2021/12/19 12:03:33;;;;;;;6.90;2.08;;;;;;;3.96;80.65;99096.23;1613488;87;21155;-68
2021/12/19 12:06:20;;;;;;;5.35;1.90;;;;;;;3.90;81.33;99079.63;1608500;87;20965;-68
2021/12/19 12:09:28;;;;;;;4.78;1.45;;;;;;;3.80;81.45;99087.63;1612631;87;21152;-67
2021/12/19 12:12:10;;;;;;;4.03;1.50;;;;;;;3.72;80.67;99087.02;1619778;84;21709;-68
2021/12/19 12:14:54;;;;;;;6.50;1.87;;;;;;;3.67;80.88;99103.11;1718976;82;21109;-68
2021/12/19 12:17:25;;;;;;;3.92;1.25;;;;;;;3.69;80.97;99096.14;1751925;80;21898;-68
2021/12/19 12:19:58;;;;;;;3.08;1.10;;;;;;;3.65;80.18;99089.39;1753290;80;21209;-67
2021/12/19 12:22:36;;;;;;;2.55;0.90;;;;;;;3.64;79.50;99096.75;1730760;81;21131;-67
2021/12/19 12:25:20;;;;;;;2.50;1.25;;;;;;;3.59;77.18;99099.91;1751684;81;21025;-68
2021/12/19 12:28:02;;;;;;;3.85;1.10;;;;;;;3.62;78.98;99097.68;1749321;80;21438;-68
2021/12/19 12:30:30;;;;;;;3.25;1.20;;;;;;;3.63;78.97;99101.48;1751281;81;21252;-67
2021/12/19 12:33:01;;;;;;;2.27;0.88;;;;;;;3.52;77.53;99089.34;1756437;80;20947;-68
2021/12/19 12:35:37;;;;;;;3.17;1.10;;;;;;;3.52;79.42;99071.27;1691271;83;43861;-67
2021/12/19 12:38:10;;;;;;;1.70;0.80;;;;;;;3.46;79.79;99064.55;1703346;82;21606;-68
2021/12/19 12:40:52;;;;;;;2.52;1.00;;;;;;;3.42;78.54;99065.55;1706097;83;21127;-68
2021/12/19 12:43:28;;;;;;;5.83;1.67;;;;;;;3.45;79.71;99072.35;1703012;83;21783;-68
2021/12/19 12:46:18;;;;;;;5.72;2.02;;;;;;;3.45;79.61;99096.88;1698594;82;21040;-67
2021/12/19 12:48:58;;;;;;;3.65;1.90;;;;;;;3.46;79.88;99105.00;1705255;82;21048;-68
2021/12/19 12:51:47;;;;;;;4.72;1.47;;;;;;;3.46;80.38;99107.58;1698089;83;20976;-68